Time;durP1;ratioP1;P1;durP2;ratioP2;P2;SDS_P1;SDS_P2;PMS_P1;PMS_P2;Temp;Humidity;BMP_temperature;BMP_pressure;BME280_temperature;BME280_humidity;BME280_pressure;Samples;Min_cycle;Max_cycle;Signal;HPM_P1;HPM_P2
2022/07/01 00:02:13;;;;;;;;;;;15.80;99.90;;;;;;5003202;28;19981;-85
2022/07/01 00:04:39;;;;;;;;;;;15.70;99.90;;;;;;4981643;28;19986;-86
2022/07/01 00:07:04;;;;;;;;;;;15.70;99.90;;;;;;5015940;28;19928;-87
2022/07/01 00:09:30;;;;;;;;;;;15.80;99.90;;;;;;4986071;28;19936;-88
2022/07/01 00:11:56;;;;;;;;;;;15.80;99.90;;;;;;5018786;28;19929;-87
2022/07/01 00:14:22;;;;;;;;;;;15.80;99.90;;;;;;5018816;28;20140;-85
2022/07/01 00:16:49;;;;;;;;;;;15.80;99.90;;;;;;4984791;28;19935;-88
2022/07/01 00:19:14;;;;;;;;;;;15.80;99.90;;;;;;5001595;28;19935;-88
2022/07/01 00:21:40;;;;;;;;;;;15.80;99.90;;;;;;5003142;28;19932;-88
2022/07/01 00:24:06;;;;;;;;;;;15.70;99.90;;;;;;5003568;28;20519;-87
2022/07/01 00:26:32;;;;;;;;;;;15.80;99.90;;;;;;5021473;28;20465;-88
2022/07/01 00:28:58;;;;;;;;;;;15.80;99.90;;;;;;5019634;28;19928;-87
2022/07/01 00:31:24;;;;;;;;;;;15.80;99.90;;;;;;5003004;28;19933;-87
2022/07/01 00:33:49;;;;;;;;;;;15.80;99.90;;;;;;4983948;28;19936;-87
2022/07/01 00:36:15;;;;;;;;;;;15.80;99.90;;;;;;4973901;28;19935;-87
2022/07/01 00:38:40;;;;;;;;;;;15.80;99.90;;;;;;4998883;28;19981;-87
2022/07/01 00:41:06;;;;;;;;;;;15.70;99.90;;;;;;4986414;28;20042;-89
2022/07/01 00:43:38;;;;;;;;;;;15.70;99.90;;;;;;5003406;28;20361;-90
2022/07/01 00:46:04;;;;;;;;;;;15.70;99.90;;;;;;4997479;28;19941;-85
2022/07/01 00:48:31;;;;;;;;;;;15.70;99.90;;;;;;4989647;28;19975;-86
2022/07/01 00:50:57;;;;;;;;;;;15.70;99.90;;;;;;5017493;28;19932;-88
2022/07/01 00:53:23;;;;;;;;;;;15.80;99.90;;;;;;4997462;28;20055;-87
2022/07/01 00:55:49;;;;;;;;;;;15.80;99.90;;;;;;5015346;28;20098;-87
2022/07/01 00:58:15;;;;;;;;;;;15.80;99.90;;;;;;5014648;28;19939;-86
2022/07/01 01:00:40;;;;;;;;;;;15.80;99.90;;;;;;4972782;28;19933;-87
2022/07/01 01:03:08;;;;;;;;;;;15.80;99.90;;;;;;5001174;28;19928;-89
2022/07/01 01:05:34;;;;;;;;;;;15.70;99.90;;;;;;5021376;28;19968;-84
2022/07/01 01:07:59;;;;;;;;;;;15.70;99.90;;;;;;5000753;28;20020;-85
2022/07/01 01:10:26;;;;;;;;;;;15.70;99.90;;;;;;4985804;28;19950;-86
2022/07/01 01:12:52;;;;;;;;;;;15.70;99.90;;;;;;5016944;28;19983;-87
2022/07/01 01:15:18;;;;;;;;;;;15.70;99.90;;;;;;5007252;28;20383;-88
2022/07/01 01:17:44;;;;;;;;;;;15.80;99.90;;;;;;5009242;28;20608;-88
2022/07/01 01:20:14;;;;;;;;;;;15.80;99.90;;;;;;5006384;28;19924;-86
2022/07/01 01:22:40;;;;;;;;;;;15.80;99.90;;;;;;5020475;28;19998;-87
2022/07/01 01:25:06;;;;;;;;;;;15.80;99.90;;;;;;4992725;28;20027;-86
2022/07/01 01:27:32;;;;;;;;;;;15.80;99.90;;;;;;4990076;28;19940;-88
2022/07/01 01:29:57;;;;;;;;;;;15.80;99.90;;;;;;5018917;28;19929;-87
2022/07/01 01:32:29;;;;;;;;;;;15.70;99.90;;;;;;5003090;28;19929;-85
2022/07/01 01:34:55;;;;;;;;;;;15.70;99.90;;;;;;5022723;28;20417;-86
2022/07/01 01:37:20;;;;;;;;;;;15.70;99.90;;;;;;5020712;28;19929;-85
2022/07/01 01:39:49;;;;;;;;;;;15.70;99.90;;;;;;4998794;28;19929;-85
2022/07/01 01:42:14;;;;;;;;;;;15.70;99.90;;;;;;5019657;28;19929;-85
2022/07/01 01:44:40;;;;;;;;;;;15.70;99.90;;;;;;5023864;28;20047;-87
2022/07/01 01:47:06;;;;;;;;;;;15.70;99.90;;;;;;4988983;28;19955;-86
2022/07/01 01:49:31;;;;;;;;;;;15.70;99.90;;;;;;5019466;28;20015;-85
2022/07/01 01:51:59;;;;;;;;;;;15.80;99.90;;;;;;5020577;28;20297;-87
2022/07/01 01:54:28;;;;;;;;;;;15.80;99.90;;;;;;5023300;28;20120;-87
2022/07/01 01:56:53;;;;;;;;;;;15.90;99.90;;;;;;5007745;28;20590;-86
2022/07/01 01:59:19;;;;;;;;;;;15.90;99.90;;;;;;5007152;28;19939;-84
2022/07/01 02:01:45;;;;;;;;;;;15.80;99.90;;;;;;5004457;28;19935;-86
2022/07/01 02:04:11;;;;;;;;;;;15.90;99.90;;;;;;4988811;28;19925;-87
2022/07/01 02:06:36;;;;;;;;;;;15.90;99.90;;;;;;5033017;28;19932;-86
2022/07/01 02:09:03;;;;;;;;;;;15.90;99.90;;;;;;4998612;28;20047;-88
2022/07/01 02:11:28;;;;;;;;;;;15.90;99.90;;;;;;5036578;28;19935;-85
2022/07/01 02:13:54;;;;;;;;;;;15.90;99.90;;;;;;5034480;28;19925;-89
2022/07/01 02:16:20;;;;;;;;;;;15.80;99.90;;;;;;5022893;28;20374;-91
2022/07/01 02:18:45;;;;;;;;;;;15.80;99.90;;;;;;5023872;28;19955;-84
2022/07/01 02:21:11;;;;;;;;;;;15.70;99.90;;;;;;5037212;28;20476;-83
2022/07/01 02:23:37;;;;;;;;;;;15.70;99.90;;;;;;5019043;28;19928;-86
2022/07/01 02:26:03;;;;;;;;;;;15.80;99.90;;;;;;5034916;28;19928;-84
2022/07/01 02:28:29;;;;;;;;;;;15.60;99.90;;;;;;5036736;28;19929;-85
2022/07/01 02:30:55;;;;;;;;;;;15.70;99.90;;;;;;5042958;28;19968;-83
2022/07/01 02:33:21;;;;;;;;;;;15.70;99.90;;;;;;5037418;28;19976;-86
2022/07/01 02:35:47;;;;;;;;;;;15.70;99.90;;;;;;5041929;28;20352;-85
2022/07/01 02:38:13;;;;;;;;;;;15.60;99.90;;;;;;4986604;28;19929;-83
2022/07/01 02:40:39;;;;;;;;;;;15.60;99.90;;;;;;5039668;28;19928;-87
2022/07/01 02:43:05;;;;;;;;;;;15.60;99.90;;;;;;5037836;28;20397;-85
2022/07/01 02:45:31;;;;;;;;;;;15.60;99.90;;;;;;5036047;28;19985;-84
2022/07/01 02:47:57;;;;;;;;;;;15.50;99.90;;;;;;4988143;28;20339;-84
2022/07/01 02:50:23;;;;;;;;;;;15.50;99.90;;;;;;5038320;28;20278;-84
2022/07/01 02:52:48;;;;;;;;;;;15.50;99.90;;;;;;5022713;28;20401;-84
2022/07/01 02:55:14;;;;;;;;;;;15.50;99.90;;;;;;5042787;28;19936;-85
2022/07/01 02:57:41;;;;;;;;;;;15.50;99.90;;;;;;5022960;28;19985;-85
2022/07/01 03:00:07;;;;;;;;;;;15.50;99.90;;;;;;5040949;28;20432;-82
2022/07/01 03:02:33;;;;;;;;;;;15.50;99.90;;;;;;5029146;28;19928;-87
2022/07/01 03:04:59;;;;;;;;;;;15.40;99.90;;;;;;5040602;28;19928;-85
2022/07/01 03:07:25;;;;;;;;;;;15.40;99.90;;;;;;5028725;28;19928;-84
2022/07/01 03:09:52;;;;;;;;;;;15.40;99.90;;;;;;5023583;28;19974;-84
2022/07/01 03:12:29;;;;;;;;;;;15.40;99.90;;;;;;5038692;28;20009;-84
2022/07/01 03:15:09;;;;;;;;;;;15.30;99.90;;;;;;5060126;28;19993;-82
2022/07/01 03:17:36;;;;;;;;;;;15.30;99.90;;;;;;5035639;28;19928;-84
2022/07/01 03:20:02;;;;;;;;;;;15.30;99.90;;;;;;5024006;28;19964;-82
2022/07/01 03:22:29;;;;;;;;;;;15.30;99.90;;;;;;5041218;28;20015;-83
2022/07/01 03:24:55;;;;;;;;;;;15.30;99.90;;;;;;5022368;28;19932;-84
2022/07/01 03:27:21;;;;;;;;;;;15.30;99.90;;;;;;5037818;28;19939;-83
2022/07/01 03:29:46;;;;;;;;;;;15.30;99.90;;;;;;5064889;28;19928;-81
2022/07/01 03:32:12;;;;;;;;;;;15.30;99.90;;;;;;5041242;28;19925;-83
2022/07/01 03:34:42;;;;;;;;;;;15.30;99.90;;;;;;5039604;28;19967;-84
2022/07/01 03:37:09;;;;;;;;;;;15.30;99.90;;;;;;5039273;28;20745;-84
2022/07/01 03:39:36;;;;;;;;;;;15.20;99.90;;;;;;5041562;28;19928;-84
2022/07/01 03:42:02;;;;;;;;;;;15.20;99.90;;;;;;5041446;28;19929;-83
2022/07/01 03:44:28;;;;;;;;;;;15.20;99.90;;;;;;5023400;28;19971;-83
2022/07/01 03:46:54;;;;;;;;;;;15.20;99.90;;;;;;5038146;28;19983;-84
2022/07/01 03:49:20;;;;;;;;;;;15.20;99.90;;;;;;5043511;28;19983;-82
2022/07/01 03:51:46;;;;;;;;;;;15.30;99.90;;;;;;5044296;28;19928;-83
2022/07/01 03:54:30;;;;;;;;;;;15.20;99.90;;;;;;5045307;28;19928;-84
2022/07/01 03:56:59;;;;;;;;;;;15.20;99.90;;;;;;5033524;28;19928;-83
2022/07/01 03:59:26;;;;;;;;;;;15.20;99.90;;;;;;5021428;28;19973;-84
2022/07/01 04:01:52;;;;;;;;;;;15.10;99.90;;;;;;5018566;28;19928;-85
2022/07/01 04:04:18;;;;;;;;;;;15.10;99.90;;;;;;5028707;28;20430;-83
2022/07/01 04:06:44;;;;;;;;;;;15.10;99.90;;;;;;5043505;28;20647;-83
2022/07/01 04:09:12;;;;;;;;;;;15.20;99.90;;;;;;5044122;28;19935;-83
2022/07/01 04:11:37;;;;;;;;;;;15.10;99.90;;;;;;5038708;28;20447;-84
2022/07/01 04:14:03;;;;;;;;;;;15.20;99.90;;;;;;5027346;28;20022;-85
2022/07/01 04:16:30;;;;;;;;;;;15.20;99.90;;;;;;5024505;28;20036;-83
2022/07/01 04:18:55;;;;;;;;;;;15.10;99.90;;;;;;5042019;28;20046;-81
2022/07/01 04:24:06;;;;;;;;;;;15.10;99.90;;;;;;5037457;28;20372;-83
2022/07/01 04:26:32;;;;;;;;;;;15.10;99.90;;;;;;5039360;28;19924;-84
2022/07/01 04:28:58;;;;;;;;;;;15.10;99.90;;;;;;5037443;28;19934;-84
2022/07/01 04:31:24;;;;;;;;;;;15.10;99.90;;;;;;5037252;28;19928;-81
2022/07/01 04:33:50;;;;;;;;;;;15.10;99.90;;;;;;5037214;28;20019;-83
2022/07/01 04:36:16;;;;;;;;;;;15.10;99.90;;;;;;5024205;28;19928;-82
2022/07/01 04:38:41;;;;;;;;;;;15.20;99.90;;;;;;5035182;28;19929;-84
2022/07/01 04:43:51;;;;;;;;;;;15.10;99.90;;;;;;5029206;28;20598;-83
2022/07/01 04:46:17;;;;;;;;;;;15.00;99.90;;;;;;5021844;28;20023;-82
2022/07/01 04:48:43;;;;;;;;;;;15.00;99.90;;;;;;5040101;28;20408;-82
2022/07/01 04:51:08;;;;;;;;;;;15.10;99.90;;;;;;5044459;28;19935;-82
2022/07/01 04:53:34;;;;;;;;;;;15.10;99.90;;;;;;5019548;28;19928;-83
2022/07/01 04:56:00;;;;;;;;;;;15.10;99.90;;;;;;4999542;28;19972;-81
2022/07/01 04:58:26;;;;;;;;;;;15.00;99.90;;;;;;5025175;28;20915;-81
2022/07/01 05:00:52;;;;;;;;;;;15.00;99.90;;;;;;5021125;28;19989;-81
2022/07/01 05:03:18;;;;;;;;;;;15.10;99.90;;;;;;5020426;28;19935;-82
2022/07/01 05:05:43;;;;;;;;;;;15.00;99.90;;;;;;5046152;28;19935;-83
2022/07/01 05:08:09;;;;;;;;;;;15.00;99.90;;;;;;5032097;28;20426;-82
2022/07/01 05:10:35;;;;;;;;;;;15.10;99.90;;;;;;5028370;28;19939;-82
2022/07/01 05:13:01;;;;;;;;;;;15.10;99.90;;;;;;5014229;28;19972;-81
2022/07/01 05:15:26;;;;;;;;;;;15.10;99.90;;;;;;5014097;28;20282;-86
2022/07/01 05:23:21;;;;;;;;;;;15.20;99.90;;;;;;5036166;28;19936;-83
2022/07/01 05:25:47;;;;;;;;;;;15.20;99.90;;;;;;5040977;28;20069;-84
2022/07/01 05:28:12;;;;;;;;;;;15.20;99.90;;;;;;5039760;28;19929;-82
2022/07/01 05:30:38;;;;;;;;;;;15.30;99.90;;;;;;5019458;28;19928;-82
2022/07/01 05:33:04;;;;;;;;;;;15.30;99.90;;;;;;5045625;28;19928;-82
2022/07/01 05:35:30;;;;;;;;;;;15.30;99.90;;;;;;5063429;28;19954;-81
2022/07/01 05:37:56;;;;;;;;;;;15.40;99.90;;;;;;5042930;28;19932;-82
2022/07/01 05:40:22;;;;;;;;;;;15.40;99.90;;;;;;5061820;28;19934;-82
2022/07/01 05:42:48;;;;;;;;;;;15.50;99.90;;;;;;5059463;28;19928;-84
2022/07/01 05:45:13;;;;;;;;;;;15.50;99.90;;;;;;5062216;28;20922;-83
2022/07/01 05:47:39;;;;;;;;;;;15.50;99.90;;;;;;5045242;28;19932;-86
2022/07/01 05:50:05;;;;;;;;;;;15.50;99.90;;;;;;5028848;28;20432;-83
2022/07/01 05:52:31;;;;;;;;;;;15.60;99.90;;;;;;5026186;28;19932;-83
2022/07/01 05:54:57;;;;;;;;;;;15.70;99.90;;;;;;5034717;28;19932;-83
2022/07/01 05:57:22;;;;;;;;;;;15.50;99.90;;;;;;5060309;28;19928;-84
2022/07/01 05:59:48;;;;;;;;;;;15.60;99.90;;;;;;5023506;28;20395;-83
2022/07/01 06:02:14;;;;;;;;;;;15.60;99.90;;;;;;5058522;28;20692;-85
2022/07/01 06:04:43;;;;;;;;;;;15.70;99.90;;;;;;5029418;28;19939;-83
2022/07/01 06:07:10;;;;;;;;;;;15.70;99.90;;;;;;5045454;28;19928;-85
2022/07/01 06:09:38;;;;;;;;;;;15.70;99.90;;;;;;5043420;28;19928;-83
2022/07/01 06:12:10;;;;;;;;;;;15.90;99.90;;;;;;5062782;28;19928;-84
2022/07/01 06:14:37;;;;;;;;;;;15.90;99.90;;;;;;5046963;28;19935;-83
2022/07/01 06:17:03;;;;;;;;;;;15.90;99.90;;;;;;5040587;28;20377;-83
2022/07/01 06:19:29;;;;;;;;;;;16.00;99.90;;;;;;5039838;28;19955;-80
2022/07/01 06:21:56;;;;;;;;;;;16.00;99.90;;;;;;5067025;28;20428;-84
2022/07/01 06:24:22;;;;;;;;;;;15.90;99.90;;;;;;5041736;28;19928;-82
2022/07/01 06:26:48;;;;;;;;;;;16.00;99.90;;;;;;5062071;28;19939;-83
2022/07/01 06:29:13;;;;;;;;;;;15.90;99.90;;;;;;5034451;28;20437;-80
2022/07/01 06:31:39;;;;;;;;;;;16.10;99.90;;;;;;5056509;28;20000;-82
2022/07/01 06:34:05;;;;;;;;;;;16.10;99.90;;;;;;5051234;28;20746;-83
2022/07/01 06:36:31;;;;;;;;;;;16.30;99.90;;;;;;5043933;28;20023;-84
2022/07/01 06:38:56;;;;;;;;;;;16.40;99.90;;;;;;5043893;28;19933;-81
2022/07/01 06:41:28;;;;;;;;;;;16.30;99.90;;;;;;5065377;28;19936;-82
2022/07/01 06:43:54;;;;;;;;;;;16.30;99.90;;;;;;5062383;28;19967;-88
2022/07/01 06:46:21;;;;;;;;;;;16.30;99.90;;;;;;5033551;28;19924;-84
2022/07/01 06:48:46;;;;;;;;;;;16.30;99.90;;;;;;5034966;28;19973;-85
2022/07/01 06:51:12;;;;;;;;;;;16.10;99.90;;;;;;5046765;28;19963;-83
2022/07/01 06:53:38;;;;;;;;;;;16.10;99.90;;;;;;5047800;28;19989;-85
2022/07/01 06:56:04;;;;;;;;;;;16.00;99.90;;;;;;5043085;28;20440;-85
2022/07/01 06:58:29;;;;;;;;;;;16.00;99.90;;;;;;5061256;28;19932;-87
2022/07/01 07:00:55;;;;;;;;;;;15.90;99.90;;;;;;5046600;28;20348;-84
2022/07/01 07:03:21;;;;;;;;;;;16.00;99.90;;;;;;5046581;28;20396;-81
2022/07/01 07:05:46;;;;;;;;;;;15.90;99.90;;;;;;5049046;28;20932;-84
2022/07/01 07:08:12;;;;;;;;;;;15.90;99.90;;;;;;5050446;28;20381;-85
2022/07/01 07:10:38;;;;;;;;;;;15.90;99.90;;;;;;5069657;28;19934;-87
2022/07/01 07:13:03;;;;;;;;;;;15.90;99.90;;;;;;5065256;28;20412;-84
2022/07/01 07:15:30;;;;;;;;;;;15.90;99.90;;;;;;5045561;28;19983;-83
2022/07/01 07:17:57;;;;;;;;;;;16.00;99.90;;;;;;5045339;28;20410;-84
2022/07/01 07:20:24;;;;;;;;;;;16.10;99.90;;;;;;5045349;28;19946;-83
2022/07/01 07:22:49;;;;;;;;;;;16.20;99.90;;;;;;5046727;28;19939;-85
2022/07/01 07:25:15;;;;;;;;;;;16.20;99.90;;;;;;5030823;28;20538;-83
2022/07/01 07:27:41;;;;;;;;;;;16.30;99.90;;;;;;5048635;28;20018;-84
2022/07/01 07:30:07;;;;;;;;;;;16.30;99.90;;;;;;5046918;28;20389;-85
2022/07/01 07:32:33;;;;;;;;;;;16.50;99.90;;;;;;5045030;28;19928;-84
2022/07/01 07:34:58;;;;;;;;;;;16.40;99.90;;;;;;5065650;28;19932;-84
2022/07/01 07:37:24;;;;;;;;;;;16.50;99.90;;;;;;5049684;28;19995;-83
2022/07/01 07:39:50;;;;;;;;;;;16.60;99.90;;;;;;5067157;28;19933;-83
2022/07/01 07:42:15;;;;;;;;;;;16.70;99.90;;;;;;5048471;28;19935;-85
2022/07/01 07:44:41;;;;;;;;;;;17.00;99.90;;;;;;5045952;28;19935;-82
2022/07/01 07:47:07;;;;;;;;;;;17.60;99.90;;;;;;5048846;28;19977;-83
2022/07/01 07:49:32;;;;;;;;;;;17.60;99.90;;;;;;5031919;28;21168;-85
2022/07/01 07:51:58;;;;;;;;;;;17.60;99.90;;;;;;5050183;28;19928;-83
2022/07/01 07:54:24;;;;;;;;;;;17.40;99.90;;;;;;5067269;28;19957;-84
2022/07/01 07:56:50;;;;;;;;;;;17.50;99.90;;;;;;5045984;28;20051;-84
2022/07/01 07:59:15;;;;;;;;;;;17.50;99.90;;;;;;5050639;28;19928;-85
2022/07/01 08:01:41;;;;;;;;;;;17.50;99.90;;;;;;5045684;28;19928;-82
2022/07/01 08:04:07;;;;;;;;;;;17.30;99.90;;;;;;5062962;28;19928;-84
2022/07/01 08:06:32;;;;;;;;;;;17.30;99.90;;;;;;5032384;28;19935;-83
2022/07/01 08:08:58;;;;;;;;;;;17.10;99.90;;;;;;5033888;28;19929;-84
2022/07/01 08:11:24;;;;;;;;;;;17.10;99.90;;;;;;5035632;28;20015;-82
2022/07/01 08:13:49;;;;;;;;;;;17.20;99.90;;;;;;5065301;28;19932;-83
2022/07/01 08:16:15;;;;;;;;;;;17.60;99.90;;;;;;5050707;28;19931;-85
2022/07/01 08:18:41;;;;;;;;;;;17.70;99.90;;;;;;5047926;28;19932;-82
2022/07/01 08:21:06;;;;;;;;;;;18.40;99.90;;;;;;5044352;28;20959;-83
2022/07/01 08:23:32;;;;;;;;;;;19.20;99.90;;;;;;5048781;28;19928;-84
2022/07/01 08:25:58;;;;;;;;;;;19.30;99.90;;;;;;5041820;28;19929;-85
2022/07/01 08:28:24;;;;;;;;;;;19.60;99.90;;;;;;5042972;28;20328;-86
2022/07/01 08:30:49;;;;;;;;;;;19.40;99.90;;;;;;5043533;28;20520;-85
2022/07/01 08:33:15;;;;;;;;;;;19.20;99.90;;;;;;5047115;28;19986;-83
2022/07/01 08:35:41;;;;;;;;;;;19.60;99.90;;;;;;5048879;28;19986;-84
2022/07/01 08:38:07;;;;;;;;;;;19.60;99.90;;;;;;5026089;28;20413;-85
2022/07/01 08:40:32;;;;;;;;;;;19.30;99.90;;;;;;5026149;28;20040;-84
2022/07/01 08:42:59;;;;;;;;;;;19.60;99.90;;;;;;5045944;28;20744;-84
2022/07/01 08:45:26;;;;;;;;;;;19.80;99.90;;;;;;5041557;28;19975;-85
2022/07/01 08:47:55;;;;;;;;;;;20.40;99.90;;;;;;5042126;28;20004;-83
2022/07/01 08:50:21;;;;;;;;;;;20.00;99.90;;;;;;5044295;28;19929;-83
2022/07/01 08:52:46;;;;;;;;;;;19.70;99.90;;;;;;5042736;28;19935;-83
2022/07/01 08:55:12;;;;;;;;;;;19.40;99.90;;;;;;5044847;28;19928;-84
2022/07/01 08:57:38;;;;;;;;;;;19.90;99.90;;;;;;5037931;28;20027;-82
2022/07/01 09:00:05;;;;;;;;;;;20.40;99.90;;;;;;5043102;28;20471;-83
2022/07/01 09:02:50;;;;;;;;;;;20.50;99.90;;;;;;5044156;28;19928;-82
2022/07/01 09:05:16;;;;;;;;;;;20.60;99.90;;;;;;5046234;28;19928;-85
2022/07/01 09:07:41;;;;;;;;;;;20.80;99.90;;;;;;5040985;28;20011;-83
2022/07/01 09:10:18;;;;;;;;;;;20.60;99.90;;;;;;5024279;28;19993;-83
2022/07/01 09:12:44;;;;;;;;;;;20.40;99.90;;;;;;5042703;28;19928;-86
2022/07/01 09:15:19;;;;;;;;;;;20.20;99.90;;;;;;5045722;28;21251;-84
2022/07/01 09:17:44;;;;;;;;;;;20.10;99.90;;;;;;5040633;28;19952;-85
2022/07/01 09:20:22;;;;;;;;;;;19.90;99.90;;;;;;5044519;28;20549;-83
2022/07/01 09:22:58;;;;;;;;;;;19.80;99.90;;;;;;5038531;28;19943;-83
2022/07/01 09:25:28;;;;;;;;;;;19.60;99.90;;;;;;5045165;28;20015;-87
2022/07/01 09:28:08;;;;;;;;;;;19.50;99.90;;;;;;5044737;28;19928;-83
2022/07/01 09:30:33;;;;;;;;;;;19.50;99.90;;;;;;5039252;28;20231;-83
2022/07/01 09:33:05;;;;;;;;;;;19.50;99.90;;;;;;5035942;28;19936;-84
2022/07/01 09:35:31;;;;;;;;;;;19.40;99.90;;;;;;5042397;28;19925;-83
2022/07/01 09:37:57;;;;;;;;;;;19.20;99.90;;;;;;5039639;28;19928;-83
2022/07/01 09:40:23;;;;;;;;;;;19.20;99.90;;;;;;5036735;28;19985;-83
2022/07/01 09:42:49;;;;;;;;;;;19.00;99.90;;;;;;5042620;28;20019;-82
2022/07/01 09:45:15;;;;;;;;;;;19.00;99.90;;;;;;5046128;28;19975;-82
2022/07/01 09:47:44;;;;;;;;;;;18.90;99.90;;;;;;5042243;28;20541;-85
2022/07/01 09:50:10;;;;;;;;;;;19.10;99.90;;;;;;5030203;28;19975;-84
2022/07/01 09:52:36;;;;;;;;;;;19.20;99.90;;;;;;5043355;28;20010;-84
2022/07/01 09:55:02;;;;;;;;;;;19.30;99.90;;;;;;5043564;28;19936;-82
2022/07/01 09:57:28;;;;;;;;;;;19.30;99.90;;;;;;5046313;28;20573;-83
2022/07/01 09:59:54;;;;;;;;;;;19.80;99.90;;;;;;5043722;28;19968;-84
2022/07/01 10:02:21;;;;;;;;;;;20.60;99.90;;;;;;5041837;28;19932;-83
2022/07/01 10:04:53;;;;;;;;;;;20.80;99.90;;;;;;5044335;28;19936;-85
2022/07/01 10:07:25;;;;;;;;;;;20.50;99.90;;;;;;5044053;28;19928;-83
2022/07/01 10:09:51;;;;;;;;;;;20.20;99.90;;;;;;5046268;28;19935;-83
2022/07/01 10:12:20;;;;;;;;;;;20.30;99.90;;;;;;5046336;28;19944;-86
2022/07/01 10:14:46;;;;;;;;;;;20.40;99.90;;;;;;5047878;28;19929;-83
2022/07/01 10:17:26;;;;;;;;;;;20.40;99.90;;;;;;5051088;28;19947;-84
2022/07/01 10:19:54;;;;;;;;;;;20.70;99.90;;;;;;5028858;28;19972;-83
2022/07/01 10:22:27;;;;;;;;;;;20.70;99.90;;;;;;5043813;28;19932;-85
2022/07/01 10:24:54;;;;;;;;;;;20.70;99.90;;;;;;5045515;28;19935;-83
2022/07/01 10:27:21;;;;;;;;;;;21.50;99.90;;;;;;5045273;28;19928;-84
2022/07/01 10:29:47;;;;;;;;;;;22.20;99.90;;;;;;5026554;28;19990;-84
2022/07/01 10:32:22;;;;;;;;;;;22.30;99.90;;;;;;5048163;28;20511;-83
2022/07/01 10:34:48;;;;;;;;;;;22.30;99.90;;;;;;5027741;28;19930;-82
2022/07/01 10:37:16;;;;;;;;;;;22.00;99.90;;;;;;5045681;28;19979;-83
2022/07/01 10:39:54;;;;;;;;;;;21.50;99.90;;;;;;5045080;28;19935;-82
2022/07/01 10:42:20;;;;;;;;;;;21.10;99.90;;;;;;5047494;28;19940;-82
2022/07/01 10:45:08;;;;;;;;;;;20.90;99.90;;;;;;5048110;28;20297;-82
2022/07/01 10:47:34;;;;;;;;;;;20.90;99.90;;;;;;5040415;28;19975;-83
2022/07/01 10:50:03;;;;;;;;;;;21.00;99.90;;;;;;5047456;28;19932;-82
2022/07/01 10:52:29;;;;;;;;;;;21.60;99.90;;;;;;5048079;28;19929;-80
2022/07/01 10:54:55;;;;;;;;;;;21.90;99.90;;;;;;5048874;28;20407;-83
2022/07/01 10:57:22;;;;;;;;;;;21.90;99.90;;;;;;5047880;28;19968;-83
2022/07/01 11:00:00;;;;;;;;;;;21.90;99.90;;;;;;5048680;28;19928;-83
2022/07/01 11:02:27;;;;;;;;;;;22.00;99.90;;;;;;5046056;28;19960;-85
2022/07/01 11:04:54;;;;;;;;;;;22.20;99.90;;;;;;5043825;28;20451;-83
2022/07/01 11:07:20;;;;;;;;;;;22.30;99.90;;;;;;5044720;28;19995;-83
2022/07/01 11:09:46;;;;;;;;;;;22.20;99.90;;;;;;5045828;28;20511;-82
2022/07/01 11:12:14;;;;;;;;;;;22.20;99.90;;;;;;5045325;28;19950;-84
2022/07/01 11:14:40;;;;;;;;;;;22.00;99.90;;;;;;5045024;28;20002;-84
2022/07/01 11:17:07;;;;;;;;;;;21.90;99.90;;;;;;5038708;28;20547;-84
2022/07/01 11:19:33;;;;;;;;;;;22.10;99.90;;;;;;5044602;28;19960;-84
2022/07/01 11:21:59;;;;;;;;;;;21.80;99.90;;;;;;5049365;28;20014;-84
2022/07/01 11:24:25;;;;;;;;;;;21.50;99.90;;;;;;5064312;28;20843;-82
2022/07/01 11:26:54;;;;;;;;;;;21.40;99.90;;;;;;5068051;28;20065;-84
2022/07/01 11:29:27;;;;;;;;;;;21.70;99.90;;;;;;5063500;28;21838;-82
2022/07/01 11:31:53;;;;;;;;;;;21.20;99.90;;;;;;5064315;28;19935;-82
2022/07/01 11:34:18;;;;;;;;;;;21.50;99.90;;;;;;5032743;28;19928;-83
2022/07/01 11:39:33;;;;;;;;;;;21.80;99.90;;;;;;5060601;28;19928;-83
2022/07/01 11:42:00;;;;;;;;;;;21.60;99.90;;;;;;5033169;28;20022;-85
2022/07/01 11:44:29;;;;;;;;;;;21.20;99.90;;;;;;5033173;28;19932;-83
2022/07/01 11:46:55;;;;;;;;;;;21.10;99.90;;;;;;5066701;28;19934;-87
2022/07/01 11:49:23;;;;;;;;;;;21.30;99.90;;;;;;5044488;28;19928;-83
2022/07/01 11:51:59;;;;;;;;;;;21.50;99.90;;;;;;5027871;28;19924;-82
2022/07/01 11:54:25;;;;;;;;;;;21.40;99.90;;;;;;5042057;28;20019;-86
2022/07/01 11:56:51;;;;;;;;;;;21.70;99.90;;;;;;5023526;28;19939;-84
2022/07/01 11:59:17;;;;;;;;;;;21.60;99.90;;;;;;5044089;28;20035;-83
2022/07/01 12:01:50;;;;;;;;;;;21.60;99.90;;;;;;5069117;28;19967;-85
2022/07/01 12:04:16;;;;;;;;;;;21.40;99.90;;;;;;5021753;28;20503;-85
2022/07/01 12:06:42;;;;;;;;;;;21.50;99.90;;;;;;5030744;28;19928;-82
2022/07/01 12:09:18;;;;;;;;;;;22.20;99.90;;;;;;5057233;28;19925;-83
2022/07/01 12:11:47;;;;;;;;;;;21.80;99.90;;;;;;5060242;28;20412;-85
2022/07/01 12:14:27;;;;;;;;;;;22.70;99.90;;;;;;5056760;28;19932;-88
2022/07/01 12:16:54;;;;;;;;;;;22.80;99.90;;;;;;5038710;28;19932;-84
2022/07/01 12:19:20;;;;;;;;;;;22.30;99.90;;;;;;5058706;28;19961;-87
2022/07/01 12:21:50;;;;;;;;;;;22.20;99.90;;;;;;5037573;28;19928;-81
2022/07/01 12:24:18;;;;;;;;;;;21.90;99.90;;;;;;5064422;28;19927;-83
2022/07/01 12:26:51;;;;;;;;;;;21.90;99.90;;;;;;5047924;28;19983;-85
2022/07/01 12:29:21;;;;;;;;;;;21.80;99.90;;;;;;5062720;28;19928;-83
2022/07/01 12:32:05;;;;;;;;;;;22.60;99.90;;;;;;5060215;28;19979;-83
2022/07/01 12:34:37;;;;;;;;;;;22.60;99.90;;;;;;5018760;28;20581;-83
2022/07/01 12:37:13;;;;;;;;;;;22.60;99.90;;;;;;5059580;28;20420;-85
2022/07/01 12:39:49;;;;;;;;;;;23.10;99.90;;;;;;5041441;28;19993;-85
2022/07/01 12:42:24;;;;;;;;;;;23.30;99.90;;;;;;5062116;28;20093;-88
2022/07/01 12:44:51;;;;;;;;;;;23.60;99.90;;;;;;5034405;28;20390;-88
2022/07/01 12:47:17;;;;;;;;;;;23.70;99.90;;;;;;5049729;28;19927;-85
2022/07/01 12:49:43;;;;;;;;;;;23.80;99.90;;;;;;5062189;28;20014;-83
2022/07/01 12:52:25;;;;;;;;;;;23.50;99.90;;;;;;5046947;28;19928;-86
2022/07/01 12:54:51;;;;;;;;;;;22.90;99.90;;;;;;5041157;28;19935;-81
2022/07/01 12:57:16;;;;;;;;;;;23.50;99.90;;;;;;5063910;28;19936;-84
2022/07/01 12:59:42;;;;;;;;;;;23.20;99.90;;;;;;5063686;28;19939;-81
2022/07/01 13:02:08;;;;;;;;;;;22.60;99.90;;;;;;5046055;28;19932;-81
2022/07/01 13:04:34;;;;;;;;;;;22.20;99.90;;;;;;5057388;28;20439;-83
2022/07/01 13:07:00;;;;;;;;;;;22.10;99.90;;;;;;5034722;28;19939;-82
2022/07/01 13:09:25;;;;;;;;;;;22.40;99.90;;;;;;5056781;28;20380;-82
2022/07/01 13:11:51;;;;;;;;;;;22.80;99.90;;;;;;5039878;28;20316;-83
2022/07/01 13:14:17;;;;;;;;;;;23.00;99.90;;;;;;5036222;28;19936;-92
2022/07/01 13:16:42;;;;;;;;;;;22.90;99.90;;;;;;5019535;28;19939;-83
2022/07/01 13:19:08;;;;;;;;;;;22.30;99.90;;;;;;5060811;28;19998;-86
2022/07/01 13:21:34;;;;;;;;;;;21.80;99.90;;;;;;5042710;28;19935;-87
2022/07/01 13:24:05;;;;;;;;;;;21.20;99.90;;;;;;5028800;28;20364;-85
2022/07/01 13:26:31;;;;;;;;;;;21.40;99.90;;;;;;5063985;28;20301;-83
2022/07/01 13:28:57;;;;;;;;;;;21.50;99.90;;;;;;5060931;28;19928;-86
2022/07/01 13:31:23;;;;;;;;;;;21.40;99.90;;;;;;5029385;28;19931;-82
2022/07/01 13:33:48;;;;;;;;;;;22.10;99.90;;;;;;5022939;28;19929;-84
2022/07/01 13:36:15;;;;;;;;;;;22.20;99.90;;;;;;5003409;28;19928;-85
2022/07/01 13:38:40;;;;;;;;;;;21.70;99.90;;;;;;5018321;28;20149;-85
2022/07/01 13:41:07;;;;;;;;;;;22.40;99.90;;;;;;5038904;28;19924;-84
2022/07/01 13:43:33;;;;;;;;;;;23.00;99.90;;;;;;5039373;28;20036;-84
2022/07/01 13:45:59;;;;;;;;;;;23.10;99.90;;;;;;5022894;28;19927;-84
2022/07/01 13:48:24;;;;;;;;;;;23.20;99.90;;;;;;5011194;28;19963;-84
2022/07/01 13:50:50;;;;;;;;;;;23.40;99.90;;;;;;5040937;28;19928;-82
2022/07/01 13:53:16;;;;;;;;;;;23.60;99.90;;;;;;5016956;28;19928;-82
2022/07/01 13:55:44;;;;;;;;;;;23.00;99.90;;;;;;5020112;28;19932;-85
2022/07/01 13:58:09;;;;;;;;;;;22.40;99.90;;;;;;5042193;28;19932;-83
2022/07/01 14:00:35;;;;;;;;;;;22.20;99.90;;;;;;5039015;28;20306;-83
2022/07/01 14:03:01;;;;;;;;;;;21.90;99.90;;;;;;5019325;28;19928;-83
2022/07/01 14:05:27;;;;;;;;;;;22.20;99.90;;;;;;5026832;28;20660;-83
2022/07/01 14:07:52;;;;;;;;;;;22.40;99.90;;;;;;5038810;28;19928;-84
2022/07/01 14:10:18;;;;;;;;;;;22.50;99.90;;;;;;5040811;28;20327;-82
2022/07/01 14:12:44;;;;;;;;;;;22.40;99.90;;;;;;5039733;28;20456;-83
2022/07/01 14:15:09;;;;;;;;;;;22.30;99.90;;;;;;5024951;28;20472;-83
2022/07/01 14:17:35;;;;;;;;;;;22.20;99.90;;;;;;5023201;28;19928;-81
2022/07/01 14:20:01;;;;;;;;;;;21.80;99.90;;;;;;5022261;28;20029;-84
2022/07/01 14:22:27;;;;;;;;;;;22.50;99.90;;;;;;5028388;28;20618;-80
2022/07/01 14:24:53;;;;;;;;;;;23.20;99.90;;;;;;5039457;28;19932;-85
2022/07/01 14:27:19;;;;;;;;;;;23.50;99.90;;;;;;5053762;28;20885;-85
2022/07/01 14:29:44;;;;;;;;;;;23.10;99.90;;;;;;5034116;28;20020;-83